sensor_id;sensor_type;location;lat;lon;timestamp;P1;durP1;ratioP1;P2;durP2;ratioP2
36009;SDS011;22076;52.182;5.404;2023-09-08T00:01:49;16.88;;;10.32;;
36009;SDS011;22076;52.182;5.404;2023-09-08T00:04:15;16.20;;;11.00;;
36009;SDS011;22076;52.182;5.404;2023-09-08T00:06:44;12.63;;;9.27;;
36009;SDS011;22076;52.182;5.404;2023-09-08T00:09:11;15.63;;;11.65;;
36009;SDS011;22076;52.182;5.404;2023-09-08T00:11:47;10.23;;;7.15;;
36009;SDS011;22076;52.182;5.404;2023-09-08T00:14:15;12.57;;;9.52;;
36009;SDS011;22076;52.182;5.404;2023-09-08T00:16:41;9.60;;;6.65;;
36009;SDS011;22076;52.182;5.404;2023-09-08T00:19:08;11.07;;;8.48;;
36009;SDS011;22076;52.182;5.404;2023-09-08T00:21:35;15.35;;;10.88;;
36009;SDS011;22076;52.182;5.404;2023-09-08T00:24:03;15.82;;;11.00;;
36009;SDS011;22076;52.182;5.404;2023-09-08T00:26:36;16.50;;;11.38;;
36009;SDS011;22076;52.182;5.404;2023-09-08T00:29:02;16.95;;;10.90;;
36009;SDS011;22076;52.182;5.404;2023-09-08T00:31:30;14.68;;;10.65;;
36009;SDS011;22076;52.182;5.404;2023-09-08T00:33:58;11.88;;;9.40;;
36009;SDS011;22076;52.182;5.404;2023-09-08T00:36:24;12.88;;;10.93;;
36009;SDS011;22076;52.182;5.404;2023-09-08T00:38:51;20.30;;;11.93;;
36009;SDS011;22076;52.182;5.404;2023-09-08T00:41:17;13.75;;;9.68;;
36009;SDS011;22076;52.182;5.404;2023-09-08T00:43:44;13.38;;;9.95;;
36009;SDS011;22076;52.182;5.404;2023-09-08T00:46:11;12.35;;;9.43;;
36009;SDS011;22076;52.182;5.404;2023-09-08T00:48:40;13.45;;;10.60;;
36009;SDS011;22076;52.182;5.404;2023-09-08T00:51:07;13.65;;;9.98;;
36009;SDS011;22076;52.182;5.404;2023-09-08T00:53:35;14.40;;;11.68;;
36009;SDS011;22076;52.182;5.404;2023-09-08T00:56:04;12.38;;;9.52;;
36009;SDS011;22076;52.182;5.404;2023-09-08T00:58:31;13.15;;;10.68;;
36009;SDS011;22076;52.182;5.404;2023-09-08T01:00:58;10.13;;;8.52;;
36009;SDS011;22076;52.182;5.404;2023-09-08T01:03:25;17.52;;;11.98;;
36009;SDS011;22076;52.182;5.404;2023-09-08T01:05:53;13.68;;;10.60;;
36009;SDS011;22076;52.182;5.404;2023-09-08T01:08:21;13.90;;;11.40;;
36009;SDS011;22076;52.182;5.404;2023-09-08T01:10:49;18.13;;;13.75;;
36009;SDS011;22076;52.182;5.404;2023-09-08T01:13:16;15.57;;;11.60;;
36009;SDS011;22076;52.182;5.404;2023-09-08T01:15:42;11.65;;;9.20;;
36009;SDS011;22076;52.182;5.404;2023-09-08T01:18:09;15.38;;;10.48;;
36009;SDS011;22076;52.182;5.404;2023-09-08T01:20:40;14.18;;;9.23;;
36009;SDS011;22076;52.182;5.404;2023-09-08T01:23:24;13.88;;;10.90;;
36009;SDS011;22076;52.182;5.404;2023-09-08T01:26:04;14.25;;;10.25;;
36009;SDS011;22076;52.182;5.404;2023-09-08T01:28:35;15.30;;;10.55;;
36009;SDS011;22076;52.182;5.404;2023-09-08T01:31:03;11.75;;;9.30;;
36009;SDS011;22076;52.182;5.404;2023-09-08T01:33:30;16.58;;;13.02;;
36009;SDS011;22076;52.182;5.404;2023-09-08T01:35:57;16.42;;;13.23;;
36009;SDS011;22076;52.182;5.404;2023-09-08T01:38:24;15.45;;;12.05;;
36009;SDS011;22076;52.182;5.404;2023-09-08T01:40:51;17.08;;;13.30;;
36009;SDS011;22076;52.182;5.404;2023-09-08T01:43:19;18.92;;;14.07;;
36009;SDS011;22076;52.182;5.404;2023-09-08T01:45:46;18.13;;;11.75;;
36009;SDS011;22076;52.182;5.404;2023-09-08T01:48:12;17.23;;;12.57;;
36009;SDS011;22076;52.182;5.404;2023-09-08T01:50:39;21.42;;;15.15;;
36009;SDS011;22076;52.182;5.404;2023-09-08T01:53:05;21.42;;;14.13;;
36009;SDS011;22076;52.182;5.404;2023-09-08T01:55:32;12.68;;;8.38;;
36009;SDS011;22076;52.182;5.404;2023-09-08T01:57:59;17.25;;;12.50;;
36009;SDS011;22076;52.182;5.404;2023-09-08T02:00:27;16.75;;;11.98;;
36009;SDS011;22076;52.182;5.404;2023-09-08T02:02:53;13.63;;;10.13;;
36009;SDS011;22076;52.182;5.404;2023-09-08T02:05:20;14.90;;;11.73;;
36009;SDS011;22076;52.182;5.404;2023-09-08T02:07:47;19.85;;;13.45;;
36009;SDS011;22076;52.182;5.404;2023-09-08T02:10:14;17.65;;;14.18;;
36009;SDS011;22076;52.182;5.404;2023-09-08T02:12:41;12.80;;;10.10;;
36009;SDS011;22076;52.182;5.404;2023-09-08T02:15:08;20.75;;;13.38;;
36009;SDS011;22076;52.182;5.404;2023-09-08T02:17:37;15.43;;;12.48;;
36009;SDS011;22076;52.182;5.404;2023-09-08T02:20:04;13.50;;;11.55;;
36009;SDS011;22076;52.182;5.404;2023-09-08T02:22:32;15.23;;;11.85;;
36009;SDS011;22076;52.182;5.404;2023-09-08T02:24:59;13.82;;;10.07;;
36009;SDS011;22076;52.182;5.404;2023-09-08T02:27:25;18.95;;;15.57;;
36009;SDS011;22076;52.182;5.404;2023-09-08T02:29:52;17.00;;;12.95;;
36009;SDS011;22076;52.182;5.404;2023-09-08T02:32:19;21.73;;;16.05;;
36009;SDS011;22076;52.182;5.404;2023-09-08T02:34:47;25.00;;;17.02;;
36009;SDS011;22076;52.182;5.404;2023-09-08T02:37:14;17.00;;;10.25;;
36009;SDS011;22076;52.182;5.404;2023-09-08T02:39:43;21.65;;;13.68;;
36009;SDS011;22076;52.182;5.404;2023-09-08T02:42:09;14.77;;;12.00;;
36009;SDS011;22076;52.182;5.404;2023-09-08T02:44:36;21.02;;;14.60;;
36009;SDS011;22076;52.182;5.404;2023-09-08T02:47:03;20.85;;;14.07;;
36009;SDS011;22076;52.182;5.404;2023-09-08T02:49:37;25.80;;;15.95;;
36009;SDS011;22076;52.182;5.404;2023-09-08T02:52:05;19.83;;;15.77;;
36009;SDS011;22076;52.182;5.404;2023-09-08T02:54:32;22.17;;;16.38;;
36009;SDS011;22076;52.182;5.404;2023-09-08T02:56:58;18.63;;;14.25;;
36009;SDS011;22076;52.182;5.404;2023-09-08T02:59:25;26.63;;;16.98;;
36009;SDS011;22076;52.182;5.404;2023-09-08T03:01:51;15.02;;;11.80;;
36009;SDS011;22076;52.182;5.404;2023-09-08T03:04:18;14.00;;;10.10;;
36009;SDS011;22076;52.182;5.404;2023-09-08T03:06:44;22.40;;;14.75;;
36009;SDS011;22076;52.182;5.404;2023-09-08T03:09:12;19.67;;;15.07;;
36009;SDS011;22076;52.182;5.404;2023-09-08T03:11:39;15.07;;;11.93;;
36009;SDS011;22076;52.182;5.404;2023-09-08T03:14:06;19.08;;;13.15;;
36009;SDS011;22076;52.182;5.404;2023-09-08T03:16:32;22.45;;;16.45;;
36009;SDS011;22076;52.182;5.404;2023-09-08T03:18:59;14.98;;;10.38;;
36009;SDS011;22076;52.182;5.404;2023-09-08T03:21:26;15.30;;;11.23;;
36009;SDS011;22076;52.182;5.404;2023-09-08T03:23:52;28.20;;;17.92;;
36009;SDS011;22076;52.182;5.404;2023-09-08T03:26:20;24.05;;;16.02;;
36009;SDS011;22076;52.182;5.404;2023-09-08T03:28:47;22.75;;;14.48;;
36009;SDS011;22076;52.182;5.404;2023-09-08T03:31:13;16.33;;;13.20;;
36009;SDS011;22076;52.182;5.404;2023-09-08T03:33:40;17.17;;;12.60;;
36009;SDS011;22076;52.182;5.404;2023-09-08T03:36:07;19.77;;;13.02;;
36009;SDS011;22076;52.182;5.404;2023-09-08T03:38:34;21.73;;;15.80;;
36009;SDS011;22076;52.182;5.404;2023-09-08T03:41:02;20.77;;;14.38;;
36009;SDS011;22076;52.182;5.404;2023-09-08T03:43:30;18.35;;;13.10;;
36009;SDS011;22076;52.182;5.404;2023-09-08T03:45:56;24.85;;;18.58;;
36009;SDS011;22076;52.182;5.404;2023-09-08T03:48:23;17.58;;;13.30;;
36009;SDS011;22076;52.182;5.404;2023-09-08T03:50:50;23.48;;;18.08;;
36009;SDS011;22076;52.182;5.404;2023-09-08T03:53:16;15.38;;;11.32;;
36009;SDS011;22076;52.182;5.404;2023-09-08T03:55:43;20.83;;;16.33;;
36009;SDS011;22076;52.182;5.404;2023-09-08T03:58:09;23.83;;;17.83;;
36009;SDS011;22076;52.182;5.404;2023-09-08T04:00:37;18.75;;;14.00;;
36009;SDS011;22076;52.182;5.404;2023-09-08T04:03:04;23.50;;;15.20;;
36009;SDS011;22076;52.182;5.404;2023-09-08T04:05:31;20.15;;;14.18;;
36009;SDS011;22076;52.182;5.404;2023-09-08T04:07:57;26.00;;;18.40;;
36009;SDS011;22076;52.182;5.404;2023-09-08T04:10:24;25.83;;;15.30;;
36009;SDS011;22076;52.182;5.404;2023-09-08T04:12:51;20.50;;;15.05;;
36009;SDS011;22076;52.182;5.404;2023-09-08T04:15:17;15.18;;;10.30;;
36009;SDS011;22076;52.182;5.404;2023-09-08T04:17:46;27.15;;;17.15;;
36009;SDS011;22076;52.182;5.404;2023-09-08T04:20:12;20.20;;;13.40;;
36009;SDS011;22076;52.182;5.404;2023-09-08T04:22:40;20.60;;;13.45;;
36009;SDS011;22076;52.182;5.404;2023-09-08T04:25:07;27.40;;;18.42;;
36009;SDS011;22076;52.182;5.404;2023-09-08T04:27:35;25.77;;;16.02;;
36009;SDS011;22076;52.182;5.404;2023-09-08T04:30:02;19.40;;;13.93;;
36009;SDS011;22076;52.182;5.404;2023-09-08T04:32:29;22.13;;;14.80;;
36009;SDS011;22076;52.182;5.404;2023-09-08T04:34:57;24.63;;;17.77;;
36009;SDS011;22076;52.182;5.404;2023-09-08T04:37:23;23.85;;;16.88;;
36009;SDS011;22076;52.182;5.404;2023-09-08T04:39:50;17.02;;;11.90;;
36009;SDS011;22076;52.182;5.404;2023-09-08T04:42:18;17.27;;;12.82;;
36009;SDS011;22076;52.182;5.404;2023-09-08T04:44:45;17.83;;;13.75;;
36009;SDS011;22076;52.182;5.404;2023-09-08T04:47:11;22.70;;;14.50;;
36009;SDS011;22076;52.182;5.404;2023-09-08T04:49:38;26.55;;;17.58;;
36009;SDS011;22076;52.182;5.404;2023-09-08T04:52:06;28.23;;;18.35;;
36009;SDS011;22076;52.182;5.404;2023-09-08T04:54:33;25.02;;;18.60;;
36009;SDS011;22076;52.182;5.404;2023-09-08T04:57:00;28.23;;;18.85;;
36009;SDS011;22076;52.182;5.404;2023-09-08T04:59:27;22.88;;;15.40;;
36009;SDS011;22076;52.182;5.404;2023-09-08T05:01:54;13.13;;;10.27;;
36009;SDS011;22076;52.182;5.404;2023-09-08T05:04:21;26.27;;;17.10;;
36009;SDS011;22076;52.182;5.404;2023-09-08T05:06:48;16.85;;;12.27;;
36009;SDS011;22076;52.182;5.404;2023-09-08T05:09:16;32.20;;;19.48;;
36009;SDS011;22076;52.182;5.404;2023-09-08T05:11:43;19.83;;;13.07;;
36009;SDS011;22076;52.182;5.404;2023-09-08T05:14:09;24.65;;;16.23;;
36009;SDS011;22076;52.182;5.404;2023-09-08T05:16:36;21.55;;;14.05;;
36009;SDS011;22076;52.182;5.404;2023-09-08T05:19:04;20.25;;;12.38;;
36009;SDS011;22076;52.182;5.404;2023-09-08T05:21:34;25.50;;;19.25;;
36009;SDS011;22076;52.182;5.404;2023-09-08T05:24:02;23.15;;;16.08;;
36009;SDS011;22076;52.182;5.404;2023-09-08T05:26:30;27.77;;;18.73;;
36009;SDS011;22076;52.182;5.404;2023-09-08T05:28:57;20.30;;;15.93;;
36009;SDS011;22076;52.182;5.404;2023-09-08T05:31:23;28.27;;;17.55;;
36009;SDS011;22076;52.182;5.404;2023-09-08T05:33:51;29.60;;;19.25;;
36009;SDS011;22076;52.182;5.404;2023-09-08T05:36:17;28.25;;;19.20;;
36009;SDS011;22076;52.182;5.404;2023-09-08T05:38:45;20.65;;;13.95;;
36009;SDS011;22076;52.182;5.404;2023-09-08T05:41:12;21.83;;;16.15;;
36009;SDS011;22076;52.182;5.404;2023-09-08T05:43:40;20.38;;;14.60;;
36009;SDS011;22076;52.182;5.404;2023-09-08T05:46:06;20.48;;;14.23;;
36009;SDS011;22076;52.182;5.404;2023-09-08T05:48:33;23.67;;;17.98;;
36009;SDS011;22076;52.182;5.404;2023-09-08T05:51:00;27.80;;;17.90;;
36009;SDS011;22076;52.182;5.404;2023-09-08T05:53:27;18.20;;;12.82;;
36009;SDS011;22076;52.182;5.404;2023-09-08T05:55:54;14.82;;;10.27;;
36009;SDS011;22076;52.182;5.404;2023-09-08T05:58:30;25.50;;;17.13;;
36009;SDS011;22076;52.182;5.404;2023-09-08T06:00:58;23.20;;;14.10;;
36009;SDS011;22076;52.182;5.404;2023-09-08T06:03:25;18.70;;;11.32;;
36009;SDS011;22076;52.182;5.404;2023-09-08T06:05:52;18.50;;;13.25;;
36009;SDS011;22076;52.182;5.404;2023-09-08T06:08:24;25.98;;;18.60;;
36009;SDS011;22076;52.182;5.404;2023-09-08T06:10:51;17.40;;;13.18;;
36009;SDS011;22076;52.182;5.404;2023-09-08T06:13:18;21.45;;;14.27;;
36009;SDS011;22076;52.182;5.404;2023-09-08T06:15:44;32.85;;;18.50;;
36009;SDS011;22076;52.182;5.404;2023-09-08T06:18:12;25.45;;;17.45;;
36009;SDS011;22076;52.182;5.404;2023-09-08T06:20:44;24.77;;;16.50;;
36009;SDS011;22076;52.182;5.404;2023-09-08T06:23:12;30.80;;;19.42;;
36009;SDS011;22076;52.182;5.404;2023-09-08T06:25:38;20.20;;;13.45;;
36009;SDS011;22076;52.182;5.404;2023-09-08T06:28:05;24.40;;;17.48;;
36009;SDS011;22076;52.182;5.404;2023-09-08T06:30:33;20.70;;;13.32;;
36009;SDS011;22076;52.182;5.404;2023-09-08T06:33:00;24.52;;;17.02;;
36009;SDS011;22076;52.182;5.404;2023-09-08T06:35:29;27.90;;;18.88;;
36009;SDS011;22076;52.182;5.404;2023-09-08T06:37:57;25.52;;;17.58;;
36009;SDS011;22076;52.182;5.404;2023-09-08T06:40:24;16.05;;;11.45;;
36009;SDS011;22076;52.182;5.404;2023-09-08T06:42:56;27.83;;;18.58;;
36009;SDS011;22076;52.182;5.404;2023-09-08T06:45:23;21.98;;;16.02;;
36009;SDS011;22076;52.182;5.404;2023-09-08T06:47:52;24.30;;;15.80;;
36009;SDS011;22076;52.182;5.404;2023-09-08T06:50:20;24.33;;;15.95;;
36009;SDS011;22076;52.182;5.404;2023-09-08T06:52:48;17.60;;;12.45;;
36009;SDS011;22076;52.182;5.404;2023-09-08T06:55:21;21.10;;;15.30;;
36009;SDS011;22076;52.182;5.404;2023-09-08T06:57:48;9.50;;;8.27;;
36009;SDS011;22076;52.182;5.404;2023-09-08T07:00:15;23.17;;;15.77;;
36009;SDS011;22076;52.182;5.404;2023-09-08T07:02:44;12.38;;;8.07;;
36009;SDS011;22076;52.182;5.404;2023-09-08T07:05:11;19.48;;;12.15;;
36009;SDS011;22076;52.182;5.404;2023-09-08T07:07:37;12.02;;;9.15;;
36009;SDS011;22076;52.182;5.404;2023-09-08T07:10:07;28.50;;;17.95;;
36009;SDS011;22076;52.182;5.404;2023-09-08T07:12:40;9.75;;;6.70;;
36009;SDS011;22076;52.182;5.404;2023-09-08T07:15:07;10.85;;;7.60;;
36009;SDS011;22076;52.182;5.404;2023-09-08T07:17:36;14.80;;;11.43;;
36009;SDS011;22076;52.182;5.404;2023-09-08T07:20:04;12.45;;;8.95;;
36009;SDS011;22076;52.182;5.404;2023-09-08T07:22:31;21.40;;;14.80;;
36009;SDS011;22076;52.182;5.404;2023-09-08T07:24:57;29.35;;;17.23;;
36009;SDS011;22076;52.182;5.404;2023-09-08T07:27:25;27.02;;;18.60;;
36009;SDS011;22076;52.182;5.404;2023-09-08T07:29:52;17.80;;;12.98;;
36009;SDS011;22076;52.182;5.404;2023-09-08T07:32:19;22.80;;;16.13;;
36009;SDS011;22076;52.182;5.404;2023-09-08T07:34:45;16.25;;;12.32;;
36009;SDS011;22076;52.182;5.404;2023-09-08T07:37:23;25.23;;;15.00;;
36009;SDS011;22076;52.182;5.404;2023-09-08T07:39:53;15.02;;;9.68;;
36009;SDS011;22076;52.182;5.404;2023-09-08T07:42:20;15.10;;;9.75;;
36009;SDS011;22076;52.182;5.404;2023-09-08T07:44:50;14.75;;;9.57;;
36009;SDS011;22076;52.182;5.404;2023-09-08T07:47:19;12.70;;;8.70;;
36009;SDS011;22076;52.182;5.404;2023-09-08T07:49:46;17.63;;;12.52;;
36009;SDS011;22076;52.182;5.404;2023-09-08T07:52:14;13.93;;;8.98;;
36009;SDS011;22076;52.182;5.404;2023-09-08T07:54:40;24.50;;;16.33;;
36009;SDS011;22076;52.182;5.404;2023-09-08T07:57:07;22.20;;;16.13;;
36009;SDS011;22076;52.182;5.404;2023-09-08T07:59:36;14.10;;;9.90;;
36009;SDS011;22076;52.182;5.404;2023-09-08T08:02:06;11.98;;;9.45;;
36009;SDS011;22076;52.182;5.404;2023-09-08T08:04:33;18.83;;;12.65;;
36009;SDS011;22076;52.182;5.404;2023-09-08T08:07:00;19.38;;;14.85;;
36009;SDS011;22076;52.182;5.404;2023-09-08T08:09:27;16.48;;;12.13;;
36009;SDS011;22076;52.182;5.404;2023-09-08T08:11:54;11.50;;;8.82;;
36009;SDS011;22076;52.182;5.404;2023-09-08T08:14:21;18.17;;;12.20;;
36009;SDS011;22076;52.182;5.404;2023-09-08T08:16:47;11.05;;;7.78;;
36009;SDS011;22076;52.182;5.404;2023-09-08T08:19:15;16.10;;;12.80;;
36009;SDS011;22076;52.182;5.404;2023-09-08T08:21:42;8.15;;;6.72;;
36009;SDS011;22076;52.182;5.404;2023-09-08T08:24:08;16.08;;;11.80;;
36009;SDS011;22076;52.182;5.404;2023-09-08T08:26:35;13.70;;;9.38;;
36009;SDS011;22076;52.182;5.404;2023-09-08T08:29:02;18.00;;;12.27;;
36009;SDS011;22076;52.182;5.404;2023-09-08T08:31:29;20.15;;;15.40;;
36009;SDS011;22076;52.182;5.404;2023-09-08T08:33:56;21.70;;;15.43;;
36009;SDS011;22076;52.182;5.404;2023-09-08T08:36:24;22.02;;;15.50;;
36009;SDS011;22076;52.182;5.404;2023-09-08T08:38:50;12.88;;;9.80;;
36009;SDS011;22076;52.182;5.404;2023-09-08T08:41:17;20.38;;;13.93;;
36009;SDS011;22076;52.182;5.404;2023-09-08T08:43:44;19.67;;;12.65;;
36009;SDS011;22076;52.182;5.404;2023-09-08T08:46:12;12.68;;;9.55;;
36009;SDS011;22076;52.182;5.404;2023-09-08T08:48:39;13.52;;;7.88;;
36009;SDS011;22076;52.182;5.404;2023-09-08T08:51:07;21.73;;;14.02;;
36009;SDS011;22076;52.182;5.404;2023-09-08T08:53:36;10.68;;;8.95;;
36009;SDS011;22076;52.182;5.404;2023-09-08T08:56:07;15.27;;;10.15;;
36009;SDS011;22076;52.182;5.404;2023-09-08T08:58:36;11.65;;;7.95;;
36009;SDS011;22076;52.182;5.404;2023-09-08T09:01:04;16.05;;;11.63;;
36009;SDS011;22076;52.182;5.404;2023-09-08T09:03:33;16.33;;;12.90;;
36009;SDS011;22076;52.182;5.404;2023-09-08T09:06:04;22.45;;;16.15;;
36009;SDS011;22076;52.182;5.404;2023-09-08T09:08:31;14.73;;;10.68;;
36009;SDS011;22076;52.182;5.404;2023-09-08T09:10:59;10.55;;;8.15;;
36009;SDS011;22076;52.182;5.404;2023-09-08T09:13:26;14.00;;;8.75;;
36009;SDS011;22076;52.182;5.404;2023-09-08T09:15:53;16.52;;;12.48;;
36009;SDS011;22076;52.182;5.404;2023-09-08T09:18:26;9.43;;;6.67;;
36009;SDS011;22076;52.182;5.404;2023-09-08T09:20:58;21.58;;;14.02;;
36009;SDS011;22076;52.182;5.404;2023-09-08T09:23:29;17.08;;;13.10;;
36009;SDS011;22076;52.182;5.404;2023-09-08T09:25:56;8.05;;;6.68;;
36009;SDS011;22076;52.182;5.404;2023-09-08T09:28:25;9.00;;;7.80;;
36009;SDS011;22076;52.182;5.404;2023-09-08T09:30:54;16.42;;;12.07;;
36009;SDS011;22076;52.182;5.404;2023-09-08T09:33:22;8.20;;;6.78;;
36009;SDS011;22076;52.182;5.404;2023-09-08T09:35:50;9.63;;;7.68;;
36009;SDS011;22076;52.182;5.404;2023-09-08T09:38:17;17.05;;;9.70;;
36009;SDS011;22076;52.182;5.404;2023-09-08T09:40:45;13.57;;;11.15;;
36009;SDS011;22076;52.182;5.404;2023-09-08T09:43:12;11.60;;;9.25;;
36009;SDS011;22076;52.182;5.404;2023-09-08T09:45:41;8.05;;;6.65;;
36009;SDS011;22076;52.182;5.404;2023-09-08T09:48:08;15.70;;;12.63;;
36009;SDS011;22076;52.182;5.404;2023-09-08T09:50:37;11.50;;;8.27;;
36009;SDS011;22076;52.182;5.404;2023-09-08T09:53:07;7.32;;;6.32;;
36009;SDS011;22076;52.182;5.404;2023-09-08T09:55:36;8.00;;;6.72;;
36009;SDS011;22076;52.182;5.404;2023-09-08T09:58:03;14.60;;;9.18;;
36009;SDS011;22076;52.182;5.404;2023-09-08T10:00:33;8.20;;;6.95;;
36009;SDS011;22076;52.182;5.404;2023-09-08T10:03:04;9.40;;;7.40;;
36009;SDS011;22076;52.182;5.404;2023-09-08T10:05:30;10.88;;;9.00;;
36009;SDS011;22076;52.182;5.404;2023-09-08T10:07:57;9.73;;;8.00;;
36009;SDS011;22076;52.182;5.404;2023-09-08T10:10:25;6.70;;;6.00;;
36009;SDS011;22076;52.182;5.404;2023-09-08T10:12:53;6.82;;;6.15;;
36009;SDS011;22076;52.182;5.404;2023-09-08T10:15:23;11.05;;;8.15;;
36009;SDS011;22076;52.182;5.404;2023-09-08T10:17:52;15.38;;;10.50;;
36009;SDS011;22076;52.182;5.404;2023-09-08T10:20:23;11.98;;;8.18;;
36009;SDS011;22076;52.182;5.404;2023-09-08T10:22:52;7.50;;;6.78;;
36009;SDS011;22076;52.182;5.404;2023-09-08T10:25:24;20.67;;;10.90;;
36009;SDS011;22076;52.182;5.404;2023-09-08T10:27:54;16.25;;;12.45;;
36009;SDS011;22076;52.182;5.404;2023-09-08T10:30:22;13.57;;;11.20;;
36009;SDS011;22076;52.182;5.404;2023-09-08T10:32:50;7.57;;;5.80;;
36009;SDS011;22076;52.182;5.404;2023-09-08T10:35:17;15.98;;;10.90;;
36009;SDS011;22076;52.182;5.404;2023-09-08T10:37:45;7.28;;;6.45;;
36009;SDS011;22076;52.182;5.404;2023-09-08T10:40:22;14.02;;;10.38;;
36009;SDS011;22076;52.182;5.404;2023-09-08T10:42:51;8.95;;;6.57;;
36009;SDS011;22076;52.182;5.404;2023-09-08T10:47:59;16.50;;;10.55;;
36009;SDS011;22076;52.182;5.404;2023-09-08T10:50:26;13.68;;;10.30;;
36009;SDS011;22076;52.182;5.404;2023-09-08T10:53:05;10.93;;;7.82;;
36009;SDS011;22076;52.182;5.404;2023-09-08T10:55:36;14.30;;;10.68;;
36009;SDS011;22076;52.182;5.404;2023-09-08T10:58:06;13.32;;;9.95;;
36009;SDS011;22076;52.182;5.404;2023-09-08T11:00:45;10.18;;;8.00;;
36009;SDS011;22076;52.182;5.404;2023-09-08T11:03:13;8.65;;;7.32;;
36009;SDS011;22076;52.182;5.404;2023-09-08T11:05:43;9.88;;;6.57;;
36009;SDS011;22076;52.182;5.404;2023-09-08T11:08:11;11.23;;;8.18;;
36009;SDS011;22076;52.182;5.404;2023-09-08T11:10:39;8.10;;;7.20;;
36009;SDS011;22076;52.182;5.404;2023-09-08T11:13:06;9.10;;;7.30;;
36009;SDS011;22076;52.182;5.404;2023-09-08T11:15:33;8.65;;;7.32;;
36009;SDS011;22076;52.182;5.404;2023-09-08T11:18:04;12.60;;;8.65;;
36009;SDS011;22076;52.182;5.404;2023-09-08T11:22:59;11.32;;;6.22;;
36009;SDS011;22076;52.182;5.404;2023-09-08T11:25:27;8.90;;;6.07;;
36009;SDS011;22076;52.182;5.404;2023-09-08T11:27:54;11.95;;;8.50;;
36009;SDS011;22076;52.182;5.404;2023-09-08T11:30:21;12.88;;;8.63;;
36009;SDS011;22076;52.182;5.404;2023-09-08T11:32:47;8.10;;;7.28;;
36009;SDS011;22076;52.182;5.404;2023-09-08T11:35:14;7.82;;;7.03;;
36009;SDS011;22076;52.182;5.404;2023-09-08T11:37:41;12.38;;;7.90;;
36009;SDS011;22076;52.182;5.404;2023-09-08T11:40:09;7.45;;;6.20;;
36009;SDS011;22076;52.182;5.404;2023-09-08T11:42:39;8.60;;;6.30;;
36009;SDS011;22076;52.182;5.404;2023-09-08T11:45:09;10.87;;;7.53;;
36009;SDS011;22076;52.182;5.404;2023-09-08T11:47:39;7.65;;;5.38;;
36009;SDS011;22076;52.182;5.404;2023-09-08T11:50:07;12.20;;;6.30;;
36009;SDS011;22076;52.182;5.404;2023-09-08T11:52:36;9.30;;;7.53;;
36009;SDS011;22076;52.182;5.404;2023-09-08T11:55:03;11.40;;;8.23;;
36009;SDS011;22076;52.182;5.404;2023-09-08T11:57:31;9.02;;;7.47;;
36009;SDS011;22076;52.182;5.404;2023-09-08T11:59:59;8.02;;;6.25;;
36009;SDS011;22076;52.182;5.404;2023-09-08T12:02:33;10.65;;;7.85;;
36009;SDS011;22076;52.182;5.404;2023-09-08T12:05:00;12.50;;;7.82;;
36009;SDS011;22076;52.182;5.404;2023-09-08T12:07:27;6.63;;;5.82;;
36009;SDS011;22076;52.182;5.404;2023-09-08T12:09:54;11.20;;;7.30;;
36009;SDS011;22076;52.182;5.404;2023-09-08T12:12:21;11.25;;;5.05;;
36009;SDS011;22076;52.182;5.404;2023-09-08T12:14:47;7.70;;;6.47;;
36009;SDS011;22076;52.182;5.404;2023-09-08T12:17:15;7.10;;;6.00;;
36009;SDS011;22076;52.182;5.404;2023-09-08T12:19:42;8.90;;;6.75;;
36009;SDS011;22076;52.182;5.404;2023-09-08T12:22:09;5.65;;;5.05;;
36009;SDS011;22076;52.182;5.404;2023-09-08T12:24:46;8.13;;;6.82;;
36009;SDS011;22076;52.182;5.404;2023-09-08T12:27:14;6.10;;;5.22;;
36009;SDS011;22076;52.182;5.404;2023-09-08T12:29:41;6.40;;;5.05;;
36009;SDS011;22076;52.182;5.404;2023-09-08T12:32:07;8.38;;;6.72;;
36009;SDS011;22076;52.182;5.404;2023-09-08T12:34:36;7.78;;;6.60;;
36009;SDS011;22076;52.182;5.404;2023-09-08T12:37:02;9.00;;;6.78;;
36009;SDS011;22076;52.182;5.404;2023-09-08T12:39:32;6.93;;;5.32;;
36009;SDS011;22076;52.182;5.404;2023-09-08T12:41:59;9.40;;;6.57;;
36009;SDS011;22076;52.182;5.404;2023-09-08T12:44:26;8.88;;;6.32;;
36009;SDS011;22076;52.182;5.404;2023-09-08T12:46:52;7.57;;;6.10;;
36009;SDS011;22076;52.182;5.404;2023-09-08T12:49:19;8.40;;;5.57;;
36009;SDS011;22076;52.182;5.404;2023-09-08T12:51:47;6.38;;;5.78;;
36009;SDS011;22076;52.182;5.404;2023-09-08T12:54:13;8.15;;;6.18;;
36009;SDS011;22076;52.182;5.404;2023-09-08T12:56:40;13.73;;;7.00;;
36009;SDS011;22076;52.182;5.404;2023-09-08T12:59:07;9.13;;;7.43;;
36009;SDS011;22076;52.182;5.404;2023-09-08T13:01:33;7.22;;;6.07;;
36009;SDS011;22076;52.182;5.404;2023-09-08T13:04:00;7.22;;;5.45;;
36009;SDS011;22076;52.182;5.404;2023-09-08T13:06:27;7.38;;;6.55;;
36009;SDS011;22076;52.182;5.404;2023-09-08T13:08:55;6.45;;;5.85;;
36009;SDS011;22076;52.182;5.404;2023-09-08T13:11:23;7.97;;;5.75;;
36009;SDS011;22076;52.182;5.404;2023-09-08T13:13:50;8.80;;;6.22;;
36009;SDS011;22076;52.182;5.404;2023-09-08T13:16:17;12.02;;;6.68;;
36009;SDS011;22076;52.182;5.404;2023-09-08T13:18:43;8.20;;;6.20;;
36009;SDS011;22076;52.182;5.404;2023-09-08T13:21:10;11.10;;;6.65;;
36009;SDS011;22076;52.182;5.404;2023-09-08T13:23:36;6.35;;;5.72;;
36009;SDS011;22076;52.182;5.404;2023-09-08T13:26:05;8.15;;;6.45;;
36009;SDS011;22076;52.182;5.404;2023-09-08T13:28:31;10.52;;;7.28;;
36009;SDS011;22076;52.182;5.404;2023-09-08T13:30:58;9.32;;;7.20;;
36009;SDS011;22076;52.182;5.404;2023-09-08T13:33:25;11.13;;;6.25;;
36009;SDS011;22076;52.182;5.404;2023-09-08T13:35:51;7.07;;;5.35;;
36009;SDS011;22076;52.182;5.404;2023-09-08T13:38:18;7.53;;;4.85;;
36009;SDS011;22076;52.182;5.404;2023-09-08T13:40:45;10.90;;;5.45;;
36009;SDS011;22076;52.182;5.404;2023-09-08T13:43:13;6.68;;;4.78;;
36009;SDS011;22076;52.182;5.404;2023-09-08T13:45:40;5.88;;;5.05;;
36009;SDS011;22076;52.182;5.404;2023-09-08T13:48:08;7.10;;;5.97;;
36009;SDS011;22076;52.182;5.404;2023-09-08T13:50:37;6.18;;;5.32;;
36009;SDS011;22076;52.182;5.404;2023-09-08T13:53:04;7.13;;;5.90;;
36009;SDS011;22076;52.182;5.404;2023-09-08T13:55:31;7.78;;;5.05;;
36009;SDS011;22076;52.182;5.404;2023-09-08T13:57:57;7.47;;;5.30;;
36009;SDS011;22076;52.182;5.404;2023-09-08T14:00:25;10.30;;;6.45;;
36009;SDS011;22076;52.182;5.404;2023-09-08T14:02:52;5.55;;;5.05;;
36009;SDS011;22076;52.182;5.404;2023-09-08T14:05:19;7.55;;;5.00;;
36009;SDS011;22076;52.182;5.404;2023-09-08T14:07:45;9.00;;;6.20;;
36009;SDS011;22076;52.182;5.404;2023-09-08T14:10:12;7.82;;;5.07;;
36009;SDS011;22076;52.182;5.404;2023-09-08T14:12:38;5.75;;;5.10;;
36009;SDS011;22076;52.182;5.404;2023-09-08T14:15:05;7.20;;;5.80;;
36009;SDS011;22076;52.182;5.404;2023-09-08T14:17:34;6.57;;;5.28;;
36009;SDS011;22076;52.182;5.404;2023-09-08T14:20:01;10.65;;;5.35;;
36009;SDS011;22076;52.182;5.404;2023-09-08T14:22:28;6.82;;;5.13;;
36009;SDS011;22076;52.182;5.404;2023-09-08T14:24:55;5.25;;;4.30;;
36009;SDS011;22076;52.182;5.404;2023-09-08T14:27:21;5.03;;;4.50;;
36009;SDS011;22076;52.182;5.404;2023-09-08T14:29:48;5.78;;;5.07;;
36009;SDS011;22076;52.182;5.404;2023-09-08T14:32:14;10.93;;;5.78;;
36009;SDS011;22076;52.182;5.404;2023-09-08T14:34:42;9.85;;;6.03;;
36009;SDS011;22076;52.182;5.404;2023-09-08T14:37:09;4.80;;;4.32;;
36009;SDS011;22076;52.182;5.404;2023-09-08T14:39:36;5.28;;;4.78;;